createdAt,value
2022-09-10T00:02:16.028Z,13.20
2022-09-10T00:04:43.151Z,13.24
2022-09-10T00:07:12.346Z,13.23
2022-09-10T00:09:39.435Z,13.26
2022-09-10T00:12:06.753Z,13.19
2022-09-10T00:14:33.928Z,13.25
2022-09-10T00:17:01.650Z,13.27
2022-09-10T00:19:31.148Z,13.31
2022-09-10T00:21:58.074Z,13.26
2022-09-10T00:24:25.337Z,13.27
2022-09-10T00:26:52.461Z,13.23
2022-09-10T00:29:19.979Z,13.31
2022-09-10T00:31:47.169Z,13.23
2022-09-10T00:34:14.370Z,13.25
2022-09-10T00:36:43.830Z,13.31
2022-09-10T00:39:12.206Z,13.22
2022-09-10T00:41:42.136Z,13.20
2022-09-10T00:44:37.414Z,13.17
2022-09-10T00:47:05.829Z,13.13
2022-09-10T00:49:40.916Z,13.16
2022-09-10T00:52:08.354Z,13.12
2022-09-10T00:54:37.529Z,13.08
2022-09-10T00:57:12.059Z,13.17
2022-09-10T00:59:48.883Z,13.16
2022-09-10T01:02:16.525Z,13.22
2022-09-10T01:04:44.230Z,13.23
2022-09-10T01:07:12.359Z,13.28
2022-09-10T01:09:40.712Z,13.28
2022-09-10T01:12:26.636Z,13.27
2022-09-10T01:15:06.213Z,13.24
2022-09-10T01:17:42.496Z,13.27
2022-09-10T01:20:25.088Z,13.35
2022-09-10T01:23:21.883Z,13.10
2022-09-10T01:26:16.791Z,13.16
2022-09-10T01:29:07.673Z,12.97
2022-09-10T01:31:45.330Z,12.98
2022-09-10T01:34:27.164Z,12.94
2022-09-10T01:37:00.109Z,12.80
2022-09-10T01:39:27.922Z,12.97
2022-09-10T01:41:56.482Z,12.87
2022-09-10T01:44:43.752Z,12.70
2022-09-10T01:47:15.077Z,12.71
2022-09-10T01:50:02.637Z,12.70
2022-09-10T01:52:58.131Z,12.87
2022-09-10T01:55:41.802Z,13.05
2022-09-10T01:58:21.495Z,13.18
2022-09-10T02:01:03.164Z,13.03
2022-09-10T02:03:33.022Z,13.14
2022-09-10T02:06:00.613Z,13.34
2022-09-10T02:08:33.624Z,13.29
2022-09-10T02:11:06.053Z,13.12
2022-09-10T02:13:36.329Z,13.13
2022-09-10T02:16:40.708Z,13.07
2022-09-10T02:19:08.167Z,13.06
2022-09-10T02:21:35.701Z,13.06
2022-09-10T02:24:09.954Z,12.96
2022-09-10T02:26:40.539Z,12.96
2022-09-10T02:29:09.143Z,13.06
2022-09-10T02:31:38.555Z,13.03
2022-09-10T02:34:06.451Z,12.87
2022-09-10T02:36:35.263Z,12.96
2022-09-10T02:39:05.066Z,12.85
2022-09-10T02:41:35.741Z,12.77
2022-09-10T02:44:04.074Z,12.73
2022-09-10T02:46:31.780Z,12.77
2022-09-10T02:48:59.077Z,12.84
2022-09-10T02:51:28.318Z,12.90
2022-09-10T02:53:55.833Z,12.88
2022-09-10T02:56:23.686Z,13.01
2022-09-10T02:58:50.995Z,12.94
2022-09-10T03:01:20.230Z,12.81
2022-09-10T03:03:56.868Z,12.87
2022-09-10T03:06:25.431Z,12.87
2022-09-10T03:08:55.209Z,12.94
2022-09-10T03:11:25.254Z,12.90
2022-09-10T03:13:52.950Z,12.79
2022-09-10T03:16:20.510Z,12.79
2022-09-10T03:18:47.649Z,12.95
2022-09-10T03:21:18.293Z,13.01
2022-09-10T03:23:47.070Z,12.74
2022-09-10T03:26:17.857Z,12.68
2022-09-10T03:28:46.174Z,12.80
2022-09-10T03:31:15.283Z,12.99
2022-09-10T03:33:46.952Z,12.83
2022-09-10T03:36:15.255Z,12.88
2022-09-10T03:38:44.773Z,12.82
2022-09-10T03:41:12.000Z,12.93
2022-09-10T03:43:39.489Z,12.87
2022-09-10T03:46:11.860Z,12.84
2022-09-10T03:48:40.732Z,12.88
2022-09-10T03:51:10.710Z,12.77
2022-09-10T03:53:38.699Z,12.76
2022-09-10T03:56:07.123Z,12.90
2022-09-10T03:58:35.843Z,12.79
2022-09-10T04:01:04.692Z,12.87
2022-09-10T04:03:35.315Z,12.77
2022-09-10T04:06:02.429Z,12.82
2022-09-10T04:08:29.531Z,12.89
2022-09-10T04:11:01.964Z,12.78
2022-09-10T04:13:29.246Z,12.85
2022-09-10T04:15:56.595Z,12.76
2022-09-10T04:18:26.428Z,12.78
2022-09-10T04:20:54.489Z,12.79
2022-09-10T04:23:21.645Z,12.66
2022-09-10T04:25:50.685Z,12.67
2022-09-10T04:28:18.012Z,12.68
2022-09-10T04:30:48.038Z,12.76
2022-09-10T04:33:15.485Z,12.73
2022-09-10T04:35:43.505Z,12.89
2022-09-10T04:38:12.531Z,12.77
2022-09-10T04:40:43.881Z,12.75
2022-09-10T04:43:11.655Z,12.76
2022-09-10T04:45:41.187Z,12.81
2022-09-10T04:48:08.323Z,12.90
2022-09-10T04:50:53.976Z,12.79
2022-09-10T04:53:27.839Z,12.87
2022-09-10T04:55:57.083Z,12.92
2022-09-10T04:58:24.254Z,12.79
2022-09-10T05:00:51.458Z,12.88
2022-09-10T05:03:19.893Z,12.88
2022-09-10T05:05:47.905Z,12.94
2022-09-10T05:08:15.091Z,12.85
2022-09-10T05:10:49.228Z,12.95
2022-09-10T05:13:17.176Z,12.98
2022-09-10T05:15:45.985Z,12.89
2022-09-10T05:18:14.374Z,12.81
2022-09-10T05:20:44.471Z,12.73
2022-09-10T05:23:11.955Z,12.87
2022-09-10T05:25:39.720Z,12.85
2022-09-10T05:28:07.377Z,12.92
2022-09-10T05:30:34.772Z,12.95
2022-09-10T05:33:02.493Z,13.05
2022-09-10T05:35:33.180Z,12.90
2022-09-10T05:38:01.000Z,13.09
2022-09-10T05:40:29.649Z,13.03
2022-09-10T05:42:57.509Z,13.01
2022-09-10T05:45:24.637Z,13.01
2022-09-10T05:47:52.923Z,12.95
2022-09-10T05:50:22.880Z,13.06
2022-09-10T05:52:51.028Z,12.94
2022-09-10T05:55:18.577Z,12.98
2022-09-10T05:57:47.236Z,12.95
2022-09-10T06:00:17.242Z,12.92
2022-09-10T06:02:58.968Z,12.94
2022-09-10T06:05:31.103Z,12.97
2022-09-10T06:07:58.262Z,12.98
2022-09-10T06:10:25.470Z,13.03
2022-09-10T06:12:52.697Z,12.91
2022-09-10T06:15:21.222Z,13.01
2022-09-10T06:17:49.972Z,12.97
2022-09-10T06:20:17.814Z,13.09
2022-09-10T06:22:46.716Z,13.13
2022-09-10T06:25:13.817Z,13.03
2022-09-10T06:27:41.699Z,13.06
2022-09-10T06:30:09.920Z,12.97
2022-09-10T06:32:40.629Z,13.00
2022-09-10T06:35:09.588Z,12.89
2022-09-10T06:37:37.566Z,12.93
2022-09-10T06:40:07.929Z,12.98
2022-09-10T06:42:35.701Z,12.97
2022-09-10T06:45:14.867Z,13.09
2022-09-10T06:51:01.897Z,13.13
2022-09-10T06:53:36.615Z,13.13
2022-09-10T06:56:08.276Z,13.23
2022-09-10T06:58:36.139Z,13.08
2022-09-10T07:01:14.715Z,13.19
2022-09-10T07:03:47.189Z,13.13
2022-09-10T07:06:16.963Z,13.22
2022-09-10T07:08:47.247Z,13.21
2022-09-10T07:11:15.796Z,13.41
2022-09-10T07:13:50.357Z,13.55
2022-09-10T07:16:21.581Z,13.61
2022-09-10T07:18:54.519Z,13.41
2022-09-10T07:21:27.288Z,13.20
2022-09-10T07:24:01.044Z,13.47
2022-09-10T07:26:28.600Z,13.27
2022-09-10T07:28:58.606Z,13.31
2022-09-10T07:31:28.015Z,13.50
2022-09-10T07:33:59.289Z,13.82
2022-09-10T07:36:28.257Z,13.98
2022-09-10T07:38:57.889Z,14.00
2022-09-10T07:41:29.472Z,13.66
2022-09-10T07:43:59.433Z,13.61
2022-09-10T07:46:31.416Z,13.53
2022-09-10T07:49:00.484Z,13.48
2022-09-10T07:51:29.952Z,13.46
2022-09-10T07:53:59.885Z,13.20
2022-09-10T07:56:39.558Z,13.23
2022-09-10T07:59:08.889Z,13.23
2022-09-10T08:01:42.204Z,13.09
2022-09-10T08:04:09.760Z,13.13
2022-09-10T08:06:39.005Z,13.05
2022-09-10T08:09:07.316Z,13.07
2022-09-10T08:11:39.944Z,13.18
2022-09-10T08:14:09.723Z,13.07
2022-09-10T08:16:39.280Z,13.22
2022-09-10T08:19:16.346Z,13.16
2022-09-10T08:21:44.451Z,13.15
2022-09-10T08:24:13.215Z,13.23
2022-09-10T08:26:43.311Z,13.20
2022-09-10T08:29:10.396Z,13.13
2022-09-10T08:31:37.588Z,13.16
2022-09-10T08:34:15.949Z,13.19
2022-09-10T08:36:49.019Z,13.10
2022-09-10T08:39:16.515Z,13.11
2022-09-10T08:41:56.335Z,13.23
2022-09-10T08:44:29.215Z,13.50
2022-09-10T08:47:07.405Z,13.39
2022-09-10T08:49:48.019Z,13.28
2022-09-10T08:52:38.894Z,13.25
2022-09-10T08:55:18.071Z,13.26
2022-09-10T08:58:32.699Z,13.41
2022-09-10T09:01:04.835Z,13.29
2022-09-10T09:03:45.192Z,13.52
2022-09-10T09:06:51.241Z,13.53
2022-09-10T09:09:21.859Z,13.59
2022-09-10T09:12:07.185Z,13.74
2022-09-10T09:15:10.757Z,13.55
2022-09-10T09:18:10.951Z,13.64
2022-09-10T09:20:47.018Z,13.52
2022-09-10T09:23:22.651Z,13.59
2022-09-10T09:26:04.033Z,13.57
2022-09-10T09:28:47.771Z,13.83
2022-09-10T09:31:24.214Z,13.80
2022-09-10T09:34:00.022Z,13.99
2022-09-10T09:36:37.642Z,14.34
2022-09-10T09:39:16.686Z,14.28
2022-09-10T09:42:19.581Z,14.46
2022-09-10T09:45:24.729Z,14.48
2022-09-10T09:47:54.318Z,14.43
2022-09-10T09:50:22.775Z,14.36
2022-09-10T09:52:54.670Z,14.59
2022-09-10T09:55:35.675Z,14.82
2022-09-10T09:58:24.098Z,14.86
2022-09-10T10:01:03.504Z,14.82
2022-09-10T10:03:32.298Z,14.79
2022-09-10T10:06:05.966Z,14.86
2022-09-10T10:08:39.873Z,14.84
2022-09-10T10:11:08.539Z,14.61
2022-09-10T10:13:41.018Z,14.40
2022-09-10T10:16:35.624Z,14.42
2022-09-10T10:19:03.218Z,14.22
2022-09-10T10:21:31.414Z,14.19
2022-09-10T10:23:58.993Z,14.55
2022-09-10T10:26:33.029Z,14.84
2022-09-10T10:29:07.597Z,14.47
2022-09-10T10:31:39.157Z,14.58
2022-09-10T10:34:08.967Z,14.79
2022-09-10T10:37:08.728Z,14.94
2022-09-10T10:39:56.830Z,14.98
2022-09-10T10:42:40.712Z,15.28
2022-09-10T10:45:18.346Z,15.65
2022-09-10T10:48:12.265Z,15.95
2022-09-10T10:50:53.073Z,15.32
2022-09-10T10:54:08.196Z,15.50
2022-09-10T10:56:40.691Z,15.49
2022-09-10T10:59:19.782Z,15.09
2022-09-10T11:02:13.805Z,15.03
2022-09-10T11:04:46.601Z,15.15
2022-09-10T11:07:23.072Z,15.27
2022-09-10T11:10:32.810Z,15.27
2022-09-10T11:13:09.388Z,15.45
2022-09-10T11:15:46.571Z,15.61
2022-09-10T11:18:27.310Z,15.64
2022-09-10T11:21:11.620Z,15.53
2022-09-10T11:23:47.228Z,15.95
2022-09-10T11:26:22.283Z,15.99
2022-09-10T11:28:55.342Z,15.89
2022-09-10T11:31:41.956Z,16.11
2022-09-10T11:34:41.518Z,15.71
2022-09-10T11:37:24.647Z,16.00
2022-09-10T11:39:54.979Z,15.89
2022-09-10T11:42:39.720Z,15.54
2022-09-10T11:45:31.085Z,16.02
2022-09-10T11:48:10.355Z,16.38
2022-09-10T11:50:47.098Z,17.00
2022-09-10T11:53:17.447Z,16.35
2022-09-10T11:55:50.449Z,16.28
2022-09-10T11:58:39.319Z,16.70
2022-09-10T12:01:15.500Z,16.37
2022-09-10T12:04:04.165Z,16.14
2022-09-10T12:06:44.197Z,16.41
2022-09-10T12:09:21.515Z,17.01
2022-09-10T12:11:56.569Z,16.98
2022-09-10T12:14:23.757Z,16.74
2022-09-10T12:17:03.245Z,17.05
2022-09-10T12:19:46.190Z,17.30
2022-09-10T12:22:23.678Z,17.47
2022-09-10T12:24:59.756Z,17.08
2022-09-10T12:27:50.419Z,16.55
2022-09-10T12:30:29.261Z,16.34
2022-09-10T12:33:00.479Z,15.80
2022-09-10T12:35:30.892Z,16.42
2022-09-10T12:38:35.736Z,17.36
2022-09-10T12:41:04.951Z,16.94
2022-09-10T12:43:40.887Z,16.77
2022-09-10T12:46:12.533Z,16.67
2022-09-10T12:48:44.839Z,16.14
2022-09-10T12:51:47.131Z,15.83
2022-09-10T12:54:40.366Z,16.11
2022-09-10T12:57:28.690Z,16.06
2022-09-10T13:00:32.554Z,15.91
2022-09-10T13:03:17.681Z,15.95
2022-09-10T13:05:44.691Z,16.40
2022-09-10T13:08:36.725Z,17.17
2022-09-10T13:11:20.715Z,17.53
2022-09-10T13:13:50.814Z,17.68
2022-09-10T13:16:21.121Z,17.53
2022-09-10T13:18:55.034Z,17.64
2022-09-10T13:21:23.904Z,17.40
2022-09-10T13:23:52.815Z,16.79
2022-09-10T13:26:28.704Z,17.10
2022-09-10T13:28:56.835Z,17.04
2022-09-10T13:31:43.963Z,16.81
2022-09-10T13:34:17.924Z,16.85
2022-09-10T13:37:02.296Z,16.67
2022-09-10T13:39:35.203Z,16.98
2022-09-10T13:42:11.733Z,16.84
2022-09-10T13:44:53.724Z,16.73
2022-09-10T13:47:28.973Z,16.34
2022-09-10T13:50:17.460Z,16.20
2022-09-10T13:52:48.222Z,16.05
2022-09-10T13:55:20.024Z,16.05
2022-09-10T13:57:50.085Z,16.11
2022-09-10T14:00:17.071Z,16.12
2022-09-10T14:02:53.328Z,16.17
2022-09-10T14:05:39.765Z,16.14
2022-09-10T14:08:31.157Z,16.61
2022-09-10T14:11:13.330Z,17.67
2022-09-10T14:14:19.185Z,18.23
2022-09-10T14:16:52.447Z,18.60
2022-09-10T14:19:27.854Z,19.36
2022-09-10T14:21:57.458Z,17.61
2022-09-10T14:24:33.563Z,16.84
2022-09-10T14:27:13.510Z,16.37
2022-09-10T14:29:41.249Z,16.23
2022-09-10T14:32:25.939Z,16.16
2022-09-10T14:34:53.251Z,16.38
2022-09-10T14:37:32.490Z,16.79
2022-09-10T14:40:04.729Z,23.47
2022-09-10T14:42:35.425Z,19.07
2022-09-10T14:45:03.238Z,18.90
2022-09-10T14:47:34.942Z,18.13
2022-09-10T14:50:31.031Z,17.34
2022-09-10T14:52:58.651Z,17.27
2022-09-10T14:55:28.241Z,17.32
2022-09-10T14:57:56.014Z,17.27
2022-09-10T15:00:23.986Z,17.36
2022-09-10T15:02:52.345Z,16.84
2022-09-10T15:05:20.132Z,16.69
2022-09-10T15:07:47.394Z,16.79
2022-09-10T15:10:14.585Z,16.92
2022-09-10T15:12:44.963Z,16.86
2022-09-10T15:15:17.272Z,16.71
2022-09-10T15:17:45.198Z,16.86
2022-09-10T15:20:14.499Z,16.93
2022-09-10T15:22:41.448Z,16.77
2022-09-10T15:25:27.737Z,16.98
2022-09-10T15:27:54.988Z,16.64
2022-09-10T15:30:23.710Z,16.66
2022-09-10T15:32:52.846Z,16.83
2022-09-10T15:35:21.859Z,16.99
2022-09-10T15:37:49.295Z,16.95
2022-09-10T15:40:16.923Z,16.56
2022-09-10T15:42:44.095Z,16.52
2022-09-10T15:45:11.269Z,16.48
2022-09-10T15:47:41.752Z,16.47
2022-09-10T15:50:10.257Z,16.36
2022-09-10T15:52:38.134Z,16.25
2022-09-10T15:55:06.802Z,16.24
2022-09-10T15:57:33.911Z,16.03
2022-09-10T16:00:01.675Z,15.91
2022-09-10T16:02:31.410Z,15.93
2022-09-10T16:05:00.982Z,15.83
2022-09-10T16:07:29.329Z,15.53
2022-09-10T16:09:58.656Z,15.63
2022-09-10T16:12:28.276Z,15.46
2022-09-10T16:14:55.805Z,15.45
2022-09-10T16:17:24.545Z,15.29
2022-09-10T16:19:53.827Z,14.97
2022-09-10T16:22:20.951Z,14.90
2022-09-10T16:24:48.086Z,15.32
2022-09-10T16:27:17.397Z,15.32
2022-09-10T16:29:46.946Z,15.09
2022-09-10T16:32:14.068Z,15.19
2022-09-10T16:34:41.171Z,15.03
2022-09-10T16:37:08.590Z,15.28
2022-09-10T16:39:35.707Z,15.07
2022-09-10T16:42:02.857Z,15.07
2022-09-10T16:44:32.345Z,15.00
2022-09-10T16:46:59.590Z,15.04
2022-09-10T16:49:27.505Z,14.97
2022-09-10T16:51:54.808Z,14.94
2022-09-10T16:54:22.997Z,14.71
2022-09-10T16:56:50.492Z,14.81
2022-09-10T16:59:22.802Z,14.69
2022-09-10T17:01:51.610Z,14.63
2022-09-10T17:04:25.952Z,14.59
2022-09-10T17:06:57.220Z,14.49
2022-09-10T17:09:24.892Z,14.59
2022-09-10T17:11:52.203Z,14.34
2022-09-10T17:14:19.365Z,14.38
2022-09-10T17:16:47.941Z,14.41
2022-09-10T17:19:23.250Z,14.46
2022-09-10T17:21:52.988Z,14.43
2022-09-10T17:24:22.615Z,14.39
2022-09-10T17:26:51.147Z,14.38
2022-09-10T17:29:20.519Z,14.33
2022-09-10T17:31:47.564Z,14.31
2022-09-10T17:34:16.008Z,14.55
2022-09-10T17:36:45.424Z,14.35
2022-09-10T17:39:12.545Z,14.42
2022-09-10T17:41:40.874Z,14.44
2022-09-10T17:44:09.216Z,14.50
2022-09-10T17:46:37.101Z,14.70
2022-09-10T17:49:04.530Z,14.41
2022-09-10T17:51:33.960Z,14.04
2022-09-10T17:54:03.205Z,13.98
2022-09-10T17:56:30.705Z,13.87
2022-09-10T17:59:01.322Z,14.01
2022-09-10T18:01:34.343Z,13.88
2022-09-10T18:04:01.685Z,13.84
2022-09-10T18:06:29.227Z,13.85
2022-09-10T18:09:00.791Z,13.83
2022-09-10T18:11:30.714Z,13.73
2022-09-10T18:13:59.185Z,13.68
2022-09-10T18:16:29.086Z,13.71
2022-09-10T18:18:59.915Z,13.53
2022-09-10T18:21:33.373Z,13.57
2022-09-10T18:24:09.673Z,13.60
2022-09-10T18:26:39.397Z,13.49
2022-09-10T18:29:10.089Z,13.60
2022-09-10T18:31:39.620Z,13.61
2022-09-10T18:34:08.439Z,13.70
2022-09-10T18:36:35.599Z,13.52
2022-09-10T18:39:07.227Z,13.50
2022-09-10T18:41:36.407Z,13.46
2022-09-10T18:44:07.076Z,13.42
2022-09-10T18:46:35.405Z,13.49
2022-09-10T18:49:03.511Z,13.55
2022-09-10T18:51:31.282Z,13.50
2022-09-10T18:54:00.560Z,13.47
2022-09-10T18:56:31.669Z,13.52
2022-09-10T18:59:01.416Z,13.70
2022-09-10T19:01:29.778Z,13.67
2022-09-10T19:03:57.518Z,13.77
2022-09-10T19:06:28.123Z,13.79
2022-09-10T19:09:01.232Z,13.64
2022-09-10T19:11:34.656Z,13.69
2022-09-10T19:14:04.677Z,13.78
2022-09-10T19:16:33.951Z,13.62
2022-09-10T19:19:03.943Z,13.87
2022-09-10T19:21:38.335Z,13.80
2022-09-10T19:24:05.468Z,13.90
2022-09-10T19:26:34.439Z,13.57
2022-09-10T19:29:02.053Z,13.67
2022-09-10T19:31:31.446Z,13.56
2022-09-10T19:34:01.536Z,13.69
2022-09-10T19:36:35.191Z,13.67
2022-09-10T19:39:06.160Z,13.96
2022-09-10T19:41:34.092Z,13.75
2022-09-10T19:44:02.061Z,13.79
2022-09-10T19:46:30.452Z,13.72
2022-09-10T19:48:59.682Z,13.77
2022-09-10T19:51:29.169Z,13.89
2022-09-10T19:53:56.236Z,13.97
2022-09-10T19:56:29.251Z,13.73
2022-09-10T19:58:56.381Z,13.76
2022-09-10T20:01:24.889Z,13.72
2022-09-10T20:03:53.792Z,13.68
2022-09-10T20:06:25.445Z,13.68
2022-09-10T20:08:52.678Z,13.75
2022-09-10T20:11:25.254Z,13.72
2022-09-10T20:13:58.366Z,13.72
2022-09-10T20:16:26.153Z,13.72
2022-09-10T20:18:54.033Z,13.79
2022-09-10T20:21:24.989Z,13.78
2022-09-10T20:23:55.433Z,13.76
2022-09-10T20:26:25.920Z,13.71
2022-09-10T20:28:55.991Z,13.77
2022-09-10T20:31:25.236Z,13.83
2022-09-10T20:33:57.811Z,13.74
2022-09-10T20:36:26.466Z,13.82
2022-09-10T20:38:54.403Z,13.81
2022-09-10T20:41:23.226Z,13.82
2022-09-10T20:43:53.666Z,13.86
2022-09-10T20:46:22.528Z,13.78
2022-09-10T20:48:52.283Z,13.73
2022-09-10T20:51:22.973Z,13.80
2022-09-10T20:53:50.081Z,13.91
2022-09-10T20:56:19.116Z,13.76
2022-09-10T20:58:46.980Z,13.87
2022-09-10T21:01:16.657Z,13.85
2022-09-10T21:03:43.835Z,13.80
2022-09-10T21:06:12.665Z,13.82
2022-09-10T21:08:41.507Z,13.88
2022-09-10T21:11:13.613Z,13.78
2022-09-10T21:13:53.195Z,13.72
2022-09-10T21:16:26.825Z,13.78
2022-09-10T21:19:02.139Z,13.80
2022-09-10T21:21:31.839Z,13.78
2022-09-10T21:24:01.852Z,13.96
2022-09-10T21:26:35.278Z,13.98
2022-09-10T21:29:04.664Z,13.99
2022-09-10T21:31:32.110Z,13.99
2022-09-10T21:34:03.373Z,13.96
2022-09-10T21:36:32.363Z,14.01
2022-09-10T21:39:01.246Z,13.92
2022-09-10T21:41:34.132Z,13.90
2022-09-10T21:44:04.009Z,13.88
2022-09-10T21:46:32.248Z,13.89
2022-09-10T21:48:59.647Z,13.98
2022-09-10T21:51:27.067Z,13.95
2022-09-10T21:53:56.151Z,13.89
2022-09-10T21:56:25.843Z,13.96
2022-09-10T21:58:54.206Z,13.90
2022-09-10T22:01:24.237Z,13.86
2022-09-10T22:03:54.685Z,13.83
2022-09-10T22:06:30.234Z,13.83
2022-09-10T22:09:02.907Z,13.74
2022-09-10T22:11:37.791Z,13.88
2022-09-10T22:14:08.339Z,13.80
2022-09-10T22:16:35.659Z,13.85
2022-09-10T22:19:06.678Z,13.95
2022-09-10T22:21:35.379Z,13.91
2022-09-10T22:24:02.619Z,13.84
2022-09-10T22:26:29.751Z,13.86
2022-09-10T22:29:02.542Z,13.83
2022-09-10T22:31:32.714Z,13.88
2022-09-10T22:34:02.810Z,13.80
2022-09-10T22:36:32.904Z,13.94
2022-09-10T22:39:05.685Z,13.89
2022-09-10T22:41:34.676Z,13.91
2022-09-10T22:44:02.765Z,13.87
2022-09-10T22:46:30.844Z,13.97
2022-09-10T22:48:58.071Z,13.98
2022-09-10T22:51:27.846Z,13.86
2022-09-10T22:53:56.241Z,13.93
2022-09-10T22:56:26.071Z,13.95
2022-09-10T22:58:55.537Z,13.93
2022-09-10T23:01:27.645Z,13.91
2022-09-10T23:03:56.424Z,13.78
2022-09-10T23:06:24.970Z,13.97
2022-09-10T23:08:56.037Z,14.01
2022-09-10T23:11:29.523Z,13.85
2022-09-10T23:14:02.729Z,13.90
2022-09-10T23:16:41.728Z,13.88
2022-09-10T23:19:14.377Z,13.90
2022-09-10T23:21:44.093Z,13.95
2022-09-10T23:24:14.044Z,13.90
2022-09-10T23:26:41.737Z,14.01
2022-09-10T23:29:09.232Z,14.06
2022-09-10T23:31:38.572Z,14.20
2022-09-10T23:34:08.037Z,14.32
2022-09-10T23:36:40.811Z,14.17
2022-09-10T23:39:11.960Z,14.23
2022-09-10T23:41:39.139Z,14.25
2022-09-10T23:44:06.216Z,14.28
2022-09-10T23:46:34.368Z,14.26
2022-09-10T23:49:02.174Z,14.35
2022-09-10T23:51:29.441Z,14.26
2022-09-10T23:53:56.726Z,14.32
2022-09-10T23:56:25.508Z,14.16
2022-09-10T23:58:52.735Z,14.15
